createdAt,value
2022-08-17T00:01:51.730Z,100068.56
2022-08-17T00:04:20.479Z,100066.31
2022-08-17T00:06:49.281Z,100058.44
2022-08-17T00:09:19.014Z,100068.16
2022-08-17T00:12:40.660Z,100070.84
2022-08-17T00:14:36.568Z,100072.81
2022-08-17T00:17:04.783Z,100064.09
2022-08-17T00:19:32.878Z,100053.97
2022-08-17T00:22:32.107Z,100055.41
2022-08-17T00:24:47.683Z,100058.34
2022-08-17T00:27:14.499Z,100058.22
2022-08-17T00:29:42.224Z,100057.34
2022-08-17T00:33:12.093Z,100058.34
2022-08-17T00:34:55.786Z,100058.75
2022-08-17T00:37:22.653Z,100048.75
2022-08-17T00:39:49.412Z,100046.22
2022-08-17T00:42:19.681Z,100051.84
2022-08-17T00:44:46.550Z,100049.47
2022-08-17T00:47:13.218Z,100052.28
2022-08-17T00:49:40.238Z,100053.44
2022-08-17T00:52:15.753Z,100047.53
2022-08-17T00:54:47.122Z,100051.31
2022-08-17T00:57:34.794Z,100055.97
2022-08-17T01:00:08.949Z,100047.25
2022-08-17T01:02:42.754Z,100046.97
2022-08-17T01:05:20.886Z,100045.28
2022-08-17T01:07:51.022Z,100047.94
2022-08-17T01:10:59.360Z,100038.25
2022-08-17T01:13:11.357Z,100040.34
2022-08-17T01:15:46.189Z,100045.28
2022-08-17T01:18:14.210Z,100049.81
2022-08-17T01:20:52.940Z,100045.56
2022-08-17T01:23:22.443Z,100044.59
2022-08-17T01:25:55.291Z,100033.91
2022-08-17T01:28:52.832Z,100033.91
2022-08-17T01:31:12.605Z,100034.06
2022-08-17T01:33:39.551Z,100027.00
2022-08-17T01:36:07.652Z,100023.50
2022-08-17T01:38:39.356Z,100020.25
2022-08-17T01:41:14.380Z,100008.31
2022-08-17T01:43:49.134Z,100018.16
2022-08-17T01:46:23.426Z,100013.94
2022-08-17T01:48:51.571Z,100021.25
2022-08-17T01:51:19.112Z,100012.91
2022-08-17T01:53:52.534Z,100021.50
2022-08-17T01:56:23.011Z,100022.38
2022-08-17T01:58:50.138Z,100024.91
2022-08-17T02:01:23.923Z,100030.09
2022-08-17T02:03:54.561Z,100027.16
2022-08-17T02:06:29.833Z,100018.28
2022-08-17T02:09:03.052Z,100017.59
2022-08-17T02:11:32.822Z,100020.53
2022-08-17T02:14:03.504Z,100030.53
2022-08-17T02:16:37.332Z,100028.09
2022-08-17T02:19:09.516Z,100024.56
2022-08-17T02:21:38.203Z,100026.41
2022-08-17T02:24:11.505Z,100027.38
2022-08-17T02:26:42.958Z,100033.59
2022-08-17T02:29:12.129Z,100038.94
2022-08-17T02:31:43.853Z,100036.38
2022-08-17T02:34:16.089Z,100042.84
2022-08-17T02:36:45.122Z,100044.97
2022-08-17T02:39:14.025Z,100053.94
2022-08-17T02:41:42.827Z,100071.94
2022-08-17T02:44:13.851Z,100071.22
2022-08-17T02:47:04.601Z,100079.34
2022-08-17T02:49:32.561Z,100080.50
2022-08-17T02:52:02.988Z,100086.66
2022-08-17T02:54:41.233Z,100086.66
2022-08-17T02:57:15.813Z,100080.63
2022-08-17T02:59:48.766Z,100078.66
2022-08-17T03:02:17.480Z,100077.56
2022-08-17T03:04:45.302Z,100074.59
2022-08-17T03:07:16.285Z,100077.28
2022-08-17T03:09:45.579Z,100079.81
2022-08-17T03:12:18.198Z,100076.28
2022-08-17T03:14:57.194Z,100070.94
2022-08-17T03:20:16.644Z,100081.75
2022-08-17T03:22:53.643Z,100081.75
2022-08-17T03:28:12.137Z,100091.31
2022-08-17T03:30:43.246Z,100094.13
2022-08-17T03:33:13.656Z,100090.63
2022-08-17T03:35:42.096Z,100085.28
2022-08-17T03:38:12.635Z,100086.13
2022-08-17T03:40:57.160Z,100083.44
2022-08-17T03:43:31.239Z,100085.97
2022-08-17T03:46:28.943Z,100078.09
2022-08-17T03:49:27.997Z,100078.53
2022-08-17T03:52:15.962Z,100069.81
2022-08-17T03:55:02.598Z,100083.44
2022-08-17T03:57:30.401Z,100074.88
2022-08-17T03:59:57.310Z,100076.66
2022-08-17T04:02:30.386Z,100082.88
2022-08-17T04:04:57.525Z,100082.59
2022-08-17T04:07:27.488Z,100078.94
2022-08-17T04:09:54.816Z,100076.13
2022-08-17T04:12:23.674Z,100068.97
2022-08-17T04:14:53.763Z,100077.00
2022-08-17T04:17:27.062Z,100083.31
2022-08-17T04:19:54.686Z,100090.47
2022-08-17T04:22:31.095Z,100083.72
2022-08-17T04:25:14.645Z,100081.19
2022-08-17T04:27:41.257Z,100073.31
2022-08-17T04:30:08.710Z,100075.97
2022-08-17T04:33:18.071Z,100085.22
2022-08-17T04:35:47.863Z,100093.09
2022-08-17T04:38:19.371Z,100078.63
2022-08-17T04:41:05.068Z,100089.19
2022-08-17T04:43:33.990Z,100084.81
2022-08-17T04:46:07.171Z,100083.00
2022-08-17T04:48:40.178Z,100083.00
2022-08-17T04:51:23.202Z,100080.59
2022-08-17T04:53:54.489Z,100091.84
2022-08-17T04:56:23.573Z,100085.81
2022-08-17T04:58:52.995Z,100092.97
2022-08-17T05:01:24.025Z,100090.41
2022-08-17T05:03:52.911Z,100085.34
2022-08-17T05:06:19.753Z,100083.56
2022-08-17T05:08:46.585Z,100093.09
2022-08-17T05:11:13.342Z,100097.31
2022-08-17T05:13:40.176Z,100098.03
2022-08-17T05:16:07.199Z,100099.72
2022-08-17T05:18:33.967Z,100099.59
2022-08-17T05:21:00.898Z,100093.41
2022-08-17T05:23:37.843Z,100091.44
2022-08-17T05:26:26.153Z,100090.47
2022-08-17T05:29:00.538Z,100088.50
2022-08-17T05:31:30.578Z,100097.22
2022-08-17T05:33:57.772Z,100104.25
2022-08-17T05:36:42.950Z,100103.13
2022-08-17T05:39:17.054Z,100100.16
2022-08-17T05:41:46.100Z,100100.75
2022-08-17T05:44:12.739Z,100103.44
2022-08-17T05:46:42.015Z,100110.16
2022-08-17T05:49:09.581Z,100108.22
2022-08-17T05:52:04.446Z,100115.38
2022-08-17T05:55:13.135Z,100117.91
2022-08-17T05:57:56.258Z,100119.63
2022-08-17T06:00:31.899Z,100119.38
2022-08-17T06:03:06.826Z,100121.06
2022-08-17T06:05:55.404Z,100124.31
2022-08-17T06:09:00.358Z,100121.34
2022-08-17T06:11:53.971Z,100127.41
2022-08-17T06:14:32.486Z,100140.34
2022-08-17T06:17:04.901Z,100149.22
2022-08-17T06:19:47.447Z,100149.34
2022-08-17T06:22:16.660Z,100145.69
2022-08-17T06:24:52.097Z,100148.50
2022-08-17T06:27:21.792Z,100140.34
2022-08-17T06:29:57.446Z,100149.50
2022-08-17T06:32:25.270Z,100140.50
2022-08-17T06:34:53.152Z,100152.03
2022-08-17T06:37:42.953Z,100155.56
2022-08-17T06:40:12.518Z,100158.91
2022-08-17T06:43:05.850Z,100170.47
2022-08-17T06:45:49.400Z,100166.25
2022-08-17T06:48:25.566Z,100162.59
2022-08-17T06:51:00.774Z,100170.47
2022-08-17T06:53:36.321Z,100168.50
2022-08-17T06:56:19.597Z,100177.34
2022-08-17T06:58:47.044Z,100184.13
2022-08-17T07:01:31.728Z,100177.22
2022-08-17T07:04:15.686Z,100184.81
2022-08-17T07:06:53.661Z,100189.19
2022-08-17T07:09:29.564Z,100204.41
2022-08-17T07:12:18.372Z,100193.56
2022-08-17T07:14:54.135Z,100194.13
2022-08-17T07:17:46.654Z,100201.88
2022-08-17T07:20:16.127Z,100199.19
2022-08-17T07:22:58.157Z,100193.84
2022-08-17T07:25:28.830Z,100194.53
2022-08-17T07:28:00.256Z,100199.63
2022-08-17T07:30:37.277Z,100212.00
2022-08-17T07:33:20.513Z,100204.69
2022-08-17T07:35:49.965Z,100214.28
2022-08-17T07:38:29.205Z,100224.13
2022-08-17T07:41:02.262Z,100227.34
2022-08-17T07:43:37.573Z,100230.03
2022-08-17T07:46:43.110Z,100225.38
2022-08-17T07:49:09.744Z,100236.50
2022-08-17T07:51:48.360Z,100230.88
2022-08-17T07:54:15.197Z,100245.81
2022-08-17T07:56:49.984Z,100247.50
2022-08-17T07:59:33.809Z,100245.66
2022-08-17T08:02:10.144Z,100248.06
2022-08-17T08:05:00.709Z,100262.28
2022-08-17T08:08:05.933Z,100261.44
2022-08-17T08:10:36.732Z,100263.13
2022-08-17T08:13:30.812Z,100263.69
2022-08-17T08:16:14.811Z,100263.13
2022-08-17T08:18:54.772Z,100261.34
2022-08-17T08:21:54.805Z,100273.88
2022-08-17T08:24:42.873Z,100265.72
2022-08-17T08:27:09.491Z,100261.75
2022-08-17T08:29:48.325Z,100275.69
2022-08-17T08:32:35.350Z,100271.31
2022-08-17T08:35:44.673Z,100258.78
2022-08-17T08:38:23.566Z,100268.34
2022-08-17T08:40:53.339Z,100267.38
2022-08-17T08:43:52.325Z,100262.00
2022-08-17T08:46:22.981Z,100258.06
2022-08-17T08:49:45.143Z,100254.69
2022-08-17T08:52:40.727Z,100252.66
2022-08-17T08:55:26.969Z,100250.16
2022-08-17T08:58:02.896Z,100249.97
2022-08-17T09:00:35.792Z,100252.81
2022-08-17T09:03:52.691Z,100259.28
2022-08-17T09:06:38.532Z,100263.81
2022-08-17T09:09:43.757Z,100249.69
2022-08-17T09:12:33.194Z,100250.97
2022-08-17T09:15:16.966Z,100254.19
2022-08-17T09:18:08.596Z,100254.06
2022-08-17T09:20:50.157Z,100252.06
2022-08-17T09:24:06.077Z,100257.00
2022-08-17T09:26:37.998Z,100256.25
2022-08-17T09:29:09.943Z,100260.34
2022-08-17T09:32:04.017Z,100257.22
2022-08-17T09:34:36.463Z,100264.66
2022-08-17T09:37:13.166Z,100259.56
2022-08-17T09:39:48.317Z,100262.78
2022-08-17T09:42:23.768Z,100260.94
2022-08-17T09:45:23.924Z,100263.78
2022-08-17T09:47:58.039Z,100258.81
2022-08-17T09:51:03.159Z,100257.53
2022-08-17T09:53:19.819Z,100264.97
2022-08-17T09:56:11.227Z,100269.03
2022-08-17T09:59:17.345Z,100271.72
2022-08-17T10:01:50.574Z,100282.28
2022-08-17T10:04:32.306Z,100275.09
2022-08-17T10:07:26.117Z,100268.13
2022-08-17T10:10:19.794Z,100265.25
2022-08-17T10:12:49.526Z,100270.28
2022-08-17T10:15:44.260Z,100278.09
2022-08-17T10:18:25.427Z,100274.03
2022-08-17T10:21:23.705Z,100273.13
2022-08-17T10:25:21.702Z,100277.16
2022-08-17T10:27:54.888Z,100274.19
2022-08-17T10:30:25.277Z,100275.03
2022-08-17T10:32:57.122Z,100276.88
2022-08-17T10:35:34.095Z,100276.88
2022-08-17T10:38:38.215Z,100282.00
2022-08-17T10:41:40.414Z,100283.31
2022-08-17T10:44:39.449Z,100285.16
2022-08-17T10:47:15.078Z,100282.16
2022-08-17T10:49:54.030Z,100276.66
2022-08-17T10:52:21.959Z,100281.41
2022-08-17T10:54:51.440Z,100266.84
2022-08-17T10:57:31.908Z,100268.19
2022-08-17T11:00:02.919Z,100270.25
2022-08-17T11:02:50.596Z,100269.31
2022-08-17T11:05:32.779Z,100266.19
2022-08-17T11:08:27.588Z,100259.56
2022-08-17T11:11:12.427Z,100257.81
2022-08-17T11:13:50.051Z,100258.31
2022-08-17T11:16:35.533Z,100254.63
2022-08-17T11:19:14.281Z,100246.94
2022-08-17T11:22:07.477Z,100246.31
2022-08-17T11:24:55.853Z,100248.84
2022-08-17T11:27:36.637Z,100250.84
2022-08-17T11:30:11.205Z,100242.06
2022-08-17T11:32:54.748Z,100256.22
2022-08-17T11:35:21.843Z,100254.72
2022-08-17T11:38:16.002Z,100241.94
2022-08-17T11:40:59.981Z,100244.63
2022-08-17T11:43:44.479Z,100243.81
2022-08-17T11:46:54.230Z,100247.97
2022-08-17T11:50:03.757Z,100250.66
2022-08-17T11:52:47.011Z,100251.53
2022-08-17T11:55:44.763Z,100249.50
2022-08-17T11:58:29.714Z,100248.50
2022-08-17T12:00:59.570Z,100252.19
2022-08-17T12:03:54.310Z,100252.34
2022-08-17T12:06:44.243Z,100256.91
2022-08-17T12:09:14.135Z,100258.91
2022-08-17T12:12:13.728Z,100259.38
2022-08-17T12:17:40.891Z,100264.53
2022-08-17T12:20:40.610Z,100264.84
2022-08-17T12:23:16.374Z,100266.69
2022-08-17T12:26:15.246Z,100262.31
2022-08-17T12:28:46.516Z,100256.09
2022-08-17T12:31:26.683Z,100261.47
2022-08-17T12:33:54.123Z,100253.56
2022-08-17T12:36:24.851Z,100257.97
2022-08-17T12:39:14.070Z,100257.81
2022-08-17T12:41:47.219Z,100252.03
2022-08-17T12:44:21.757Z,100262.31
2022-08-17T12:47:01.862Z,100264.16
2022-08-17T12:49:37.045Z,100257.09
2022-08-17T12:52:17.036Z,100267.69
2022-08-17T12:54:51.425Z,100274.75
2022-08-17T12:57:31.351Z,100264.31
2022-08-17T13:00:09.382Z,100262.63
2022-08-17T13:02:41.385Z,100266.81
2022-08-17T13:05:17.949Z,100266.50
2022-08-17T13:07:46.648Z,100258.44
2022-08-17T13:10:24.268Z,100255.59
2022-08-17T13:12:52.962Z,100255.44
2022-08-17T13:15:29.652Z,100245.03
2022-08-17T13:17:59.313Z,100247.09
2022-08-17T13:20:26.525Z,100244.94
2022-08-17T13:22:57.209Z,100235.88
2022-08-17T13:25:25.911Z,100241.59
2022-08-17T13:27:54.323Z,100243.97
2022-08-17T13:30:28.057Z,100235.91
2022-08-17T13:32:57.091Z,100242.81
2022-08-17T13:35:40.371Z,100244.63
2022-08-17T13:38:15.273Z,100241.63
2022-08-17T13:40:50.221Z,100241.00
2022-08-17T13:43:48.627Z,100245.03
2022-08-17T13:46:26.354Z,100252.53
2022-08-17T13:49:06.044Z,100249.66
2022-08-17T13:51:36.365Z,100247.44
2022-08-17T13:54:05.684Z,100256.00
2022-08-17T13:57:06.771Z,100253.41
2022-08-17T13:59:55.196Z,100255.75
2022-08-17T14:02:22.721Z,100259.72
2022-08-17T14:04:53.893Z,100245.78
2022-08-17T14:07:27.168Z,100250.75
2022-08-17T14:09:57.930Z,100248.69
2022-08-17T14:12:26.923Z,100270.88
2022-08-17T14:14:59.612Z,100261.41
2022-08-17T14:17:29.445Z,100274.84
2022-08-17T14:19:56.176Z,100268.13
2022-08-17T14:22:28.642Z,100273.81
2022-08-17T14:24:57.841Z,100281.47
2022-08-17T14:27:28.113Z,100283.84
2022-08-17T14:29:55.974Z,100292.03
2022-08-17T14:32:26.755Z,100298.44
2022-08-17T14:34:56.932Z,100332.63
2022-08-17T14:37:27.882Z,100335.91
2022-08-17T14:39:57.069Z,100336.84
2022-08-17T14:42:26.357Z,100346.81
2022-08-17T14:44:54.966Z,100367.34
2022-08-17T14:47:22.219Z,100361.34
2022-08-17T14:49:49.302Z,100369.16
2022-08-17T14:52:24.121Z,100368.25
2022-08-17T14:54:53.061Z,100371.56
2022-08-17T14:57:25.833Z,100380.91
2022-08-17T15:00:02.293Z,100381.34
2022-08-17T15:02:31.010Z,100380.66
2022-08-17T15:05:05.588Z,100370.94
2022-08-17T15:07:32.395Z,100375.03
2022-08-17T15:10:01.459Z,100379.56
2022-08-17T15:12:32.694Z,100378.41
2022-08-17T15:15:01.121Z,100374.19
2022-08-17T15:17:43.928Z,100380.09
2022-08-17T15:20:18.130Z,100363.47
2022-08-17T15:22:49.752Z,100362.63
2022-08-17T15:25:19.365Z,100368.13
2022-08-17T15:27:46.207Z,100374.47
2022-08-17T15:30:13.815Z,100378.84
2022-08-17T15:32:51.396Z,100382.34
2022-08-17T15:35:28.315Z,100390.13
2022-08-17T15:38:10.655Z,100390.66
2022-08-17T15:40:40.484Z,100379.13
2022-08-17T15:43:14.016Z,100386.19
2022-08-17T15:45:41.028Z,100391.41
2022-08-17T15:48:08.024Z,100390.53
2022-08-17T15:50:35.198Z,100387.00
2022-08-17T15:53:03.579Z,100385.31
2022-08-17T15:55:32.187Z,100387.16
2022-08-17T15:57:59.285Z,100378.97
2022-08-17T16:00:28.462Z,100383.34
2022-08-17T16:03:20.199Z,100383.63
2022-08-17T16:05:43.543Z,100385.03
2022-08-17T16:08:11.130Z,100393.06
2022-08-17T16:10:38.075Z,100397.44
2022-08-17T16:13:05.040Z,100392.09
2022-08-17T16:15:51.042Z,100390.53
2022-08-17T16:18:31.193Z,100400.97
2022-08-17T16:21:23.548Z,100393.63
2022-08-17T16:23:53.676Z,100396.03
2022-08-17T16:26:22.923Z,100407.47
2022-08-17T16:28:50.283Z,100415.63
2022-08-17T16:31:17.327Z,100417.88
2022-08-17T16:34:03.873Z,100418.00
2022-08-17T16:36:32.035Z,100431.66
2022-08-17T16:38:59.399Z,100423.34
2022-08-17T16:41:45.265Z,100426.03
2022-08-17T16:44:17.166Z,100431.25
2022-08-17T16:46:45.572Z,100427.88
2022-08-17T16:49:29.655Z,100428.56
2022-08-17T16:52:01.697Z,100429.25
2022-08-17T16:54:28.480Z,100431.50
2022-08-17T16:56:55.788Z,100428.56
2022-08-17T16:59:31.063Z,100422.06
2022-08-17T17:02:12.966Z,100417.44
2022-08-17T17:05:17.801Z,100423.63
2022-08-17T17:08:09.208Z,100416.03
2022-08-17T17:10:44.759Z,100417.44
2022-08-17T17:13:34.501Z,100408.13
2022-08-17T17:16:07.174Z,100400.09
2022-08-17T17:18:49.115Z,100397.59
2022-08-17T17:21:25.199Z,100396.84
2022-08-17T17:24:01.107Z,100387.03
2022-08-17T17:26:48.448Z,100386.88
2022-08-17T17:29:27.371Z,100381.94
2022-08-17T17:32:13.976Z,100371.22
2022-08-17T17:34:50.873Z,100365.72
2022-08-17T17:37:26.210Z,100366.56
2022-08-17T17:40:00.102Z,100362.22
2022-08-17T17:42:31.545Z,100362.63
2022-08-17T17:45:20.120Z,100364.88
2022-08-17T17:47:47.808Z,100362.34
2022-08-17T17:50:18.056Z,100363.47
2022-08-17T17:53:04.494Z,100380.38
2022-08-17T17:55:31.159Z,100391.22
2022-08-17T17:58:19.488Z,100391.66
2022-08-17T18:00:54.089Z,100398.84
2022-08-17T18:04:00.477Z,100396.59
2022-08-17T18:06:45.373Z,100392.63
2022-08-17T18:09:12.735Z,100404.06
2022-08-17T18:11:59.051Z,100403.06
2022-08-17T18:14:36.947Z,100392.47
2022-08-17T18:17:03.966Z,100384.44
2022-08-17T18:19:31.718Z,100382.78
2022-08-17T18:22:07.860Z,100382.91
2022-08-17T18:24:45.038Z,100393.91
2022-08-17T18:27:34.009Z,100389.66
2022-08-17T18:30:20.924Z,100404.00
2022-08-17T18:32:48.046Z,100403.75
2022-08-17T18:35:14.851Z,100403.75
2022-08-17T18:37:44.933Z,100405.44
2022-08-17T18:40:37.664Z,100408.25
2022-08-17T18:43:24.349Z,100411.91
2022-08-17T18:45:57.746Z,100416.56
2022-08-17T18:48:33.082Z,100423.75
2022-08-17T18:51:40.733Z,100438.38
2022-08-17T18:54:21.287Z,100438.38
2022-08-17T18:56:56.517Z,100431.72
2022-08-17T18:59:28.757Z,100445.13
2022-08-17T19:02:27.337Z,100445.53
2022-08-17T19:05:26.002Z,100452.97
2022-08-17T19:07:53.133Z,100453.38
2022-08-17T19:10:28.280Z,100455.22
2022-08-17T19:13:12.462Z,100466.91
2022-08-17T19:16:15.046Z,100465.09
2022-08-17T19:18:51.066Z,100472.88
2022-08-17T19:21:40.322Z,100489.06
2022-08-17T19:24:21.954Z,100489.94
2022-08-17T19:26:56.767Z,100488.38
2022-08-17T19:29:43.738Z,100493.97
2022-08-17T19:32:14.109Z,100498.50
2022-08-17T19:34:42.971Z,100499.19
2022-08-17T19:37:28.140Z,100513.53
2022-08-17T19:40:35.033Z,100513.53
2022-08-17T19:43:21.963Z,100512.44
2022-08-17T19:46:11.867Z,100509.91
2022-08-17T19:49:06.709Z,100513.81
2022-08-17T19:51:51.995Z,100509.19
2022-08-17T19:54:35.073Z,100506.78
2022-08-17T19:57:14.506Z,100502.41
2022-08-17T19:59:57.044Z,100496.09
2022-08-17T20:02:41.661Z,100506.66
2022-08-17T20:05:17.348Z,100508.03
2022-08-17T20:07:50.191Z,100508.72
2022-08-17T20:10:34.536Z,100515.06
2022-08-17T20:13:08.259Z,100514.19
2022-08-17T20:15:39.570Z,100511.66
2022-08-17T20:18:13.367Z,100518.00
2022-08-17T20:20:58.584Z,100515.47
2022-08-17T20:24:05.947Z,100525.56
2022-08-17T20:26:58.802Z,100526.50
2022-08-17T20:30:11.850Z,100525.50
2022-08-17T20:32:48.869Z,100528.19
2022-08-17T20:35:19.957Z,100530.84
2022-08-17T20:38:04.627Z,100536.47
2022-08-17T20:40:35.652Z,100527.59
2022-08-17T20:43:33.719Z,100529.81
2022-08-17T20:46:41.488Z,100530.09
2022-08-17T20:49:11.168Z,100526.50
2022-08-17T20:52:03.007Z,100537.50
2022-08-17T20:54:42.162Z,100531.97
2022-08-17T20:57:29.761Z,100542.13
2022-08-17T20:59:59.468Z,100538.63
2022-08-17T21:02:28.468Z,100542.25
2022-08-17T21:05:02.007Z,100548.44
2022-08-17T21:07:42.990Z,100544.09
2022-08-17T21:10:14.084Z,100546.91
2022-08-17T21:12:42.319Z,100540.56
2022-08-17T21:15:20.109Z,100546.09
2022-08-17T21:17:56.584Z,100546.81
2022-08-17T21:20:33.209Z,100553.00
2022-08-17T21:23:30.013Z,100551.31
2022-08-17T21:26:35.785Z,100550.59
2022-08-17T21:29:31.912Z,100547.78
2022-08-17T21:31:59.737Z,100554.81
2022-08-17T21:34:43.153Z,100554.09
2022-08-17T21:37:18.905Z,100539.53
2022-08-17T21:39:51.296Z,100545.19
2022-08-17T21:42:25.156Z,100546.25
2022-08-17T21:44:54.996Z,100540.25
2022-08-17T21:47:26.682Z,100541.88
2022-08-17T21:49:55.240Z,100544.75
2022-08-17T21:52:26.977Z,100551.13
2022-08-17T21:54:57.069Z,100554.13
2022-08-17T21:57:29.421Z,100554.84
2022-08-17T22:00:02.159Z,100557.13
2022-08-17T22:02:34.450Z,100556.06
2022-08-17T22:05:06.849Z,100559.44
2022-08-17T22:07:58.736Z,100562.53
2022-08-17T22:10:45.189Z,100567.63
2022-08-17T22:13:18.095Z,100563.72
2022-08-17T22:16:15.329Z,100560.91
2022-08-17T22:18:57.638Z,100570.63
2022-08-17T22:21:25.205Z,100566.13
2022-08-17T22:24:04.558Z,100568.66
2022-08-17T22:27:02.240Z,100572.19
2022-08-17T22:29:53.195Z,100576.56
2022-08-17T22:32:37.464Z,100573.63
2022-08-17T22:35:26.701Z,100584.72
2022-08-17T22:37:53.501Z,100585.56
2022-08-17T22:40:32.816Z,100585.00
2022-08-17T22:43:02.533Z,100579.50
2022-08-17T22:45:30.498Z,100583.84
2022-08-17T22:48:00.640Z,100584.72
2022-08-17T22:50:33.134Z,100582.19
2022-08-17T22:53:31.617Z,100588.25
2022-08-17T22:56:16.937Z,100589.34
2022-08-17T22:59:16.303Z,100584.53
2022-08-17T23:01:45.629Z,100571.56
2022-08-17T23:04:31.366Z,100574.25
2022-08-17T23:06:58.343Z,100570.84
2022-08-17T23:09:25.101Z,100569.16
2022-08-17T23:11:58.602Z,100570.25
2022-08-17T23:14:31.776Z,100586.31
2022-08-17T23:17:01.840Z,100577.44
2022-08-17T23:19:31.746Z,100574.03
2022-08-17T23:22:00.146Z,100577.69
2022-08-17T23:24:29.960Z,100574.53
2022-08-17T23:26:58.159Z,100573.69
2022-08-17T23:29:29.415Z,100577.47
2022-08-17T23:32:00.066Z,100581.16
2022-08-17T23:34:28.151Z,100582.94
2022-08-17T23:36:55.850Z,100584.78
2022-08-17T23:39:24.514Z,100583.94
2022-08-17T23:41:54.637Z,100584.22
2022-08-17T23:44:26.633Z,100584.09
2022-08-17T23:46:54.136Z,100585.06
2022-08-17T23:49:21.045Z,100584.22
2022-08-17T23:51:48.941Z,100571.22
2022-08-17T23:54:46.710Z,100567.81
2022-08-17T23:57:17.604Z,100561.06
2022-08-17T23:59:44.967Z,100565.66
